createdAt,value
2019-05-03T00:01:02.371Z,97.40
2019-05-03T00:03:31.978Z,96.00
2019-05-03T00:06:02.245Z,94.60
2019-05-03T00:08:30.818Z,94.10
2019-05-03T00:10:59.305Z,94.00
2019-05-03T00:13:27.770Z,93.90
2019-05-03T00:15:58.056Z,93.50
2019-05-03T00:18:26.686Z,93.70
2019-05-03T00:20:55.244Z,93.60
2019-05-03T00:23:23.686Z,93.80
2019-05-03T00:25:52.947Z,93.90
2019-05-03T00:28:21.758Z,93.80
2019-05-03T00:30:51.900Z,93.90
2019-05-03T00:33:22.283Z,93.80
2019-05-03T00:36:08.456Z,93.50
2019-05-03T00:38:36.956Z,93.50
2019-05-03T00:41:07.120Z,93.60
2019-05-03T00:43:36.994Z,93.60
2019-05-03T00:46:05.583Z,93.80
2019-05-03T00:48:34.028Z,93.70
2019-05-03T00:51:02.590Z,93.70
2019-05-03T00:53:31.743Z,93.60
2019-05-03T00:56:01.787Z,93.40
2019-05-03T00:58:31.831Z,93.50
2019-05-03T01:01:02.495Z,93.50
2019-05-03T01:03:32.530Z,93.50
2019-05-03T01:06:02.256Z,93.40
2019-05-03T01:08:32.520Z,93.30
2019-05-03T01:11:02.116Z,93.20
2019-05-03T01:13:32.067Z,93.40
2019-05-03T01:16:05.212Z,93.50
2019-05-03T01:18:32.990Z,93.30
2019-05-03T01:21:02.308Z,93.50
2019-05-03T01:23:32.600Z,94.00
2019-05-03T01:26:02.483Z,93.70
2019-05-03T01:28:32.308Z,93.80
2019-05-03T01:31:02.592Z,94.10
2019-05-03T01:33:32.178Z,94.30
2019-05-03T01:36:02.785Z,94.00
2019-05-03T01:38:31.884Z,93.90
2019-05-03T01:41:01.731Z,94.00
2019-05-03T01:43:31.807Z,94.60
2019-05-03T01:46:02.513Z,95.70
2019-05-03T01:48:32.333Z,96.00
2019-05-03T01:51:14.255Z,96.40
2019-05-03T01:53:44.308Z,96.70
2019-05-03T01:56:12.884Z,96.40
2019-05-03T01:58:41.757Z,96.40
2019-05-03T02:01:26.898Z,95.90
2019-05-03T02:04:03.056Z,96.20
2019-05-03T02:06:31.889Z,95.90
2019-05-03T02:09:01.625Z,95.70
2019-05-03T02:11:30.202Z,95.50
2019-05-03T02:13:58.747Z,95.30
2019-05-03T02:16:27.212Z,94.70
2019-05-03T02:18:55.757Z,94.10
2019-05-03T02:21:24.331Z,93.10
2019-05-03T02:23:52.789Z,92.90
2019-05-03T02:26:23.361Z,91.90
2019-05-03T02:28:52.741Z,91.10
2019-05-03T02:31:23.198Z,91.30
2019-05-03T02:33:53.447Z,91.60
2019-05-03T02:36:23.264Z,90.90
2019-05-03T02:38:53.436Z,90.80
2019-05-03T02:41:22.831Z,90.50
2019-05-03T02:43:55.810Z,90.40
2019-05-03T02:46:36.791Z,90.30
2019-05-03T02:49:22.010Z,90.20
2019-05-03T02:51:50.443Z,90.00
2019-05-03T02:54:18.894Z,89.60
2019-05-03T02:56:47.320Z,89.60
2019-05-03T02:59:16.181Z,89.80
2019-05-03T03:01:46.467Z,90.00
2019-05-03T03:04:15.950Z,90.10
2019-05-03T03:06:47.349Z,90.30
2019-05-03T03:09:19.237Z,90.60
2019-05-03T03:11:50.743Z,90.70
2019-05-03T03:14:21.508Z,92.00
2019-05-03T03:16:51.809Z,93.40
2019-05-03T03:19:25.981Z,93.90
2019-05-03T03:21:56.596Z,94.40
2019-05-03T03:24:27.796Z,94.70
2019-05-03T03:26:58.376Z,94.80
2019-05-03T03:29:28.434Z,94.50
2019-05-03T03:32:17.688Z,94.40
2019-05-03T03:34:54.664Z,95.20
2019-05-03T03:37:17.648Z,94.30
2019-05-03T03:39:46.240Z,94.20
2019-05-03T03:42:16.069Z,92.50
2019-05-03T03:44:45.564Z,91.60
2019-05-03T03:47:16.739Z,91.60
2019-05-03T03:49:46.519Z,91.30
2019-05-03T03:52:16.944Z,91.40
2019-05-03T03:54:47.928Z,91.30
2019-05-03T03:57:18.271Z,91.30
2019-05-03T03:59:47.314Z,91.70
2019-05-03T04:02:16.224Z,94.00
2019-05-03T04:04:45.387Z,94.10
2019-05-03T04:07:15.736Z,94.30
2019-05-03T04:09:45.651Z,94.40
2019-05-03T04:12:16.594Z,94.00
2019-05-03T04:14:46.526Z,94.40
2019-05-03T04:17:25.782Z,94.90
2019-05-03T04:19:55.927Z,94.20
2019-05-03T04:22:25.445Z,94.70
2019-05-03T04:24:55.363Z,94.90
2019-05-03T04:27:27.241Z,94.70
2019-05-03T04:29:55.690Z,95.00
2019-05-03T04:32:28.475Z,95.00
2019-05-03T04:34:56.001Z,95.40
2019-05-03T04:37:26.555Z,95.20
2019-05-03T04:39:56.100Z,95.60
2019-05-03T04:42:25.565Z,95.30
2019-05-03T04:44:56.278Z,95.50
2019-05-03T04:47:26.302Z,95.40
2019-05-03T04:49:55.567Z,95.30
2019-05-03T04:52:25.873Z,95.40
2019-05-03T04:54:56.658Z,94.80
2019-05-03T04:57:36.359Z,94.70
2019-05-03T04:59:56.264Z,94.40
2019-05-03T05:02:26.389Z,94.00
2019-05-03T05:04:55.645Z,94.00
2019-05-03T05:07:26.109Z,93.80
2019-05-03T05:09:56.188Z,93.90
2019-05-03T05:12:25.347Z,92.70
2019-05-03T05:14:56.119Z,92.60
2019-05-03T05:17:31.447Z,92.10
2019-05-03T05:20:01.555Z,92.50
2019-05-03T05:22:31.758Z,92.60
2019-05-03T05:25:01.874Z,92.60
2019-05-03T05:27:47.889Z,92.40
2019-05-03T05:30:07.738Z,91.90
2019-05-03T05:32:36.277Z,92.00
2019-05-03T05:35:06.406Z,91.70
2019-05-03T05:37:36.526Z,91.60
2019-05-03T05:40:06.701Z,91.70
2019-05-03T05:42:35.393Z,91.60
2019-05-03T05:45:05.498Z,91.20
2019-05-03T05:47:54.763Z,91.20
2019-05-03T05:50:27.685Z,91.80
2019-05-03T05:52:56.154Z,91.50
2019-05-03T05:55:42.159Z,91.30
2019-05-03T05:58:21.119Z,90.50
2019-05-03T06:00:59.845Z,90.20
2019-05-03T06:03:28.331Z,90.90
2019-05-03T06:05:58.498Z,91.10
2019-05-03T06:08:28.606Z,91.10
2019-05-03T06:11:17.057Z,91.10
2019-05-03T06:13:47.439Z,90.70
2019-05-03T06:16:20.348Z,91.90
2019-05-03T06:18:54.448Z,92.00
2019-05-03T06:21:31.094Z,91.70
2019-05-03T06:24:18.692Z,91.60
2019-05-03T06:26:57.259Z,91.50
2019-05-03T06:29:25.778Z,91.30
2019-05-03T06:32:07.723Z,91.20
2019-05-03T06:34:36.431Z,90.90
2019-05-03T06:37:09.532Z,91.20
2019-05-03T06:39:37.230Z,90.90
2019-05-03T06:42:09.906Z,91.10
2019-05-03T06:44:35.878Z,90.10
2019-05-03T06:47:09.066Z,89.20
2019-05-03T06:49:39.229Z,88.30
2019-05-03T06:52:05.894Z,88.60
2019-05-03T06:54:37.679Z,87.60
2019-05-03T06:57:09.520Z,86.20
2019-05-03T06:59:38.596Z,85.90
2019-05-03T07:02:09.096Z,85.70
2019-05-03T07:04:53.869Z,84.70
2019-05-03T07:07:27.851Z,83.80
2019-05-03T07:09:57.762Z,84.00
2019-05-03T07:12:28.039Z,84.40
2019-05-03T07:14:56.589Z,83.80
2019-05-03T07:17:25.840Z,84.00
2019-05-03T07:19:54.744Z,83.40
2019-05-03T07:22:24.459Z,84.00
2019-05-03T07:24:54.665Z,85.90
2019-05-03T07:27:24.770Z,86.20
2019-05-03T07:29:55.458Z,88.00
2019-05-03T07:32:24.662Z,88.10
2019-05-03T07:34:55.630Z,88.60
2019-05-03T07:37:24.664Z,88.40
2019-05-03T07:39:55.458Z,87.90
2019-05-03T07:42:25.458Z,87.80
2019-05-03T07:44:55.801Z,88.50
2019-05-03T07:47:24.603Z,89.50
2019-05-03T07:49:55.680Z,88.60
2019-05-03T07:52:25.880Z,85.90
2019-05-03T07:54:55.212Z,83.30
2019-05-03T07:57:25.631Z,83.20
2019-05-03T07:59:55.718Z,84.10
2019-05-03T08:02:27.244Z,85.10
2019-05-03T08:04:54.907Z,85.20
2019-05-03T08:07:25.517Z,84.70
2019-05-03T08:09:55.551Z,84.70
2019-05-03T08:12:24.706Z,84.60
2019-05-03T08:14:55.102Z,84.80
2019-05-03T08:17:25.369Z,85.40
2019-05-03T08:19:55.179Z,83.80
2019-05-03T08:22:25.522Z,84.30
2019-05-03T08:24:55.530Z,84.00
2019-05-03T08:27:25.117Z,82.60
2019-05-03T08:29:55.677Z,81.50
2019-05-03T08:32:25.747Z,80.90
2019-05-03T08:35:04.905Z,82.00
2019-05-03T08:37:35.043Z,82.10
2019-05-03T08:40:05.252Z,82.10
2019-05-03T08:42:35.151Z,79.50
2019-05-03T08:45:07.932Z,78.80
2019-05-03T08:47:35.475Z,77.10
2019-05-03T08:50:06.308Z,76.20
2019-05-03T08:52:34.917Z,75.50
2019-05-03T08:55:05.264Z,73.70
2019-05-03T08:57:35.405Z,71.80
2019-05-03T09:00:09.647Z,70.10
2019-05-03T09:02:38.132Z,70.10
2019-05-03T09:05:07.414Z,71.80
2019-05-03T09:07:35.911Z,73.10
2019-05-03T09:10:12.350Z,71.10
2019-05-03T09:12:56.079Z,68.30
2019-05-03T09:15:25.200Z,63.80
2019-05-03T09:17:55.268Z,63.60
2019-05-03T09:20:25.073Z,63.00
2019-05-03T09:22:54.918Z,63.30
2019-05-03T09:25:24.786Z,63.60
2019-05-03T09:27:55.150Z,63.40
2019-05-03T09:30:25.125Z,63.20
2019-05-03T09:32:55.135Z,61.80
2019-05-03T09:35:32.168Z,61.60
2019-05-03T09:37:55.554Z,60.00
2019-05-03T09:40:24.671Z,59.60
2019-05-03T09:42:55.076Z,60.90
2019-05-03T09:45:24.561Z,61.20
2019-05-03T09:47:55.017Z,60.10
2019-05-03T09:50:24.707Z,60.00
2019-05-03T09:52:55.431Z,60.20
2019-05-03T09:55:28.154Z,59.10
2019-05-03T09:57:56.726Z,59.10
2019-05-03T10:00:25.216Z,58.90
2019-05-03T10:02:54.820Z,58.80
2019-05-03T10:05:25.557Z,61.00
2019-05-03T10:07:53.879Z,61.60
2019-05-03T10:10:24.692Z,60.10
2019-05-03T10:12:54.938Z,59.80
2019-05-03T10:15:36.626Z,59.40
2019-05-03T10:18:10.595Z,59.00
2019-05-03T10:20:35.867Z,59.50
2019-05-03T10:23:06.359Z,59.50
2019-05-03T10:25:35.791Z,59.60
2019-05-03T10:28:06.144Z,60.00
2019-05-03T10:30:35.424Z,61.70
2019-05-03T10:33:08.712Z,62.40
2019-05-03T10:35:37.169Z,62.50
2019-05-03T10:38:05.924Z,59.70
2019-05-03T10:40:35.759Z,58.70
2019-05-03T10:43:05.711Z,58.40
2019-05-03T10:45:35.477Z,60.00
2019-05-03T10:48:04.746Z,58.40
2019-05-03T10:50:34.784Z,58.20
2019-05-03T10:53:16.782Z,55.30
2019-05-03T10:55:47.150Z,54.80
2019-05-03T10:58:17.347Z,54.50
2019-05-03T11:00:52.782Z,54.70
2019-05-03T11:03:18.074Z,54.40
2019-05-03T11:05:46.728Z,53.90
2019-05-03T11:08:15.366Z,54.80
2019-05-03T11:10:43.782Z,55.80
2019-05-03T11:13:12.258Z,56.60
2019-05-03T11:15:40.669Z,57.20
2019-05-03T11:18:09.354Z,57.10
2019-05-03T11:20:38.063Z,56.70
2019-05-03T11:23:07.699Z,57.50
2019-05-03T11:25:36.850Z,58.30
2019-05-03T11:28:11.051Z,59.70
2019-05-03T11:30:51.947Z,59.70
2019-05-03T11:33:11.363Z,58.60
2019-05-03T11:35:47.152Z,57.80
2019-05-03T11:38:20.172Z,58.40
2019-05-03T11:40:47.901Z,59.30
2019-05-03T11:43:17.995Z,59.40
2019-05-03T11:45:46.587Z,59.50
2019-05-03T11:48:15.097Z,60.00
2019-05-03T11:50:45.316Z,59.30
2019-05-03T11:53:14.538Z,59.30
2019-05-03T11:55:46.164Z,59.00
2019-05-03T11:58:21.134Z,58.30
2019-05-03T12:00:51.636Z,57.30
2019-05-03T12:03:25.042Z,57.80
2019-05-03T12:05:57.546Z,59.20
2019-05-03T12:08:26.015Z,59.30
2019-05-03T12:10:58.596Z,58.90
2019-05-03T12:13:31.040Z,58.90
2019-05-03T12:16:00.605Z,58.90
2019-05-03T12:18:29.715Z,58.40
2019-05-03T12:20:59.887Z,59.20
2019-05-03T12:23:31.309Z,58.50
2019-05-03T12:25:59.354Z,58.80
2019-05-03T12:28:28.276Z,58.70
2019-05-03T12:30:56.854Z,58.30
2019-05-03T12:33:26.062Z,59.10
2019-05-03T12:35:55.196Z,58.60
2019-05-03T12:38:25.534Z,58.20
2019-05-03T12:40:54.667Z,58.00
2019-05-03T12:43:25.176Z,57.90
2019-05-03T12:45:53.414Z,56.20
2019-05-03T12:48:21.942Z,55.60
2019-05-03T12:50:50.960Z,55.80
2019-05-03T12:53:21.978Z,56.30
2019-05-03T12:55:49.869Z,56.70
2019-05-03T12:58:18.555Z,56.60
2019-05-03T13:00:48.776Z,57.00
2019-05-03T13:03:18.801Z,56.60
2019-05-03T13:05:47.258Z,57.00
2019-05-03T13:08:39.288Z,55.80
2019-05-03T13:11:07.888Z,53.60
2019-05-03T13:13:36.564Z,54.00
2019-05-03T13:16:06.027Z,55.10
2019-05-03T13:18:35.378Z,56.20
2019-05-03T13:21:05.742Z,58.00
2019-05-03T13:23:35.303Z,57.90
2019-05-03T13:26:05.621Z,57.60
2019-05-03T13:28:34.757Z,56.80
2019-05-03T13:31:05.426Z,57.20
2019-05-03T13:33:34.837Z,57.30
2019-05-03T13:36:04.152Z,56.30
2019-05-03T13:38:34.680Z,55.90
2019-05-03T13:41:02.955Z,56.00
2019-05-03T13:43:31.497Z,55.90
2019-05-03T13:46:00.142Z,56.30
2019-05-03T13:48:41.600Z,56.10
2019-05-03T13:50:58.842Z,54.90
2019-05-03T13:53:27.296Z,55.00
2019-05-03T13:55:55.805Z,55.00
2019-05-03T13:58:26.229Z,55.90
2019-05-03T14:00:54.989Z,56.80
2019-05-03T14:03:23.634Z,56.80
2019-05-03T14:05:52.109Z,57.50
2019-05-03T14:08:20.566Z,58.40
2019-05-03T14:10:49.761Z,57.50
2019-05-03T14:13:18.242Z,56.80
2019-05-03T14:15:46.693Z,56.80
2019-05-03T14:18:15.577Z,57.30
2019-05-03T14:20:48.554Z,55.90
2019-05-03T14:23:17.017Z,55.10
2019-05-03T14:25:45.471Z,54.30
2019-05-03T14:28:14.602Z,53.30
2019-05-03T14:30:45.326Z,53.50
2019-05-03T14:33:14.001Z,53.60
2019-05-03T14:35:42.484Z,53.50
2019-05-03T14:38:10.951Z,52.80
2019-05-03T14:40:39.494Z,52.30
2019-05-03T14:43:07.986Z,52.90
2019-05-03T14:45:36.486Z,53.10
2019-05-03T14:48:06.158Z,52.60
2019-05-03T14:50:35.162Z,51.60
2019-05-03T14:53:05.480Z,50.90
2019-05-03T14:55:41.554Z,49.80
2019-05-03T14:58:29.632Z,50.50
2019-05-03T15:01:04.673Z,50.80
2019-05-03T15:03:32.571Z,51.00
2019-05-03T15:06:01.067Z,50.30
2019-05-03T15:08:29.506Z,49.80
2019-05-03T15:10:58.009Z,50.30
2019-05-03T15:13:26.476Z,50.60
2019-05-03T15:15:55.002Z,51.60
2019-05-03T15:18:25.413Z,52.00
2019-05-03T15:20:54.915Z,51.60
2019-05-03T15:23:25.477Z,51.70
2019-05-03T15:25:54.565Z,51.10
2019-05-03T15:28:25.020Z,51.40
2019-05-03T15:30:55.277Z,51.20
2019-05-03T15:33:23.609Z,51.60
2019-05-03T15:35:52.069Z,51.10
2019-05-03T15:38:20.550Z,51.70
2019-05-03T15:40:49.098Z,51.80
2019-05-03T15:43:19.307Z,52.40
2019-05-03T15:46:07.270Z,52.30
2019-05-03T15:48:40.286Z,51.60
2019-05-03T15:51:08.000Z,51.30
2019-05-03T15:53:36.446Z,51.10
2019-05-03T15:56:05.385Z,50.40
2019-05-03T15:58:33.911Z,50.70
2019-05-03T16:01:04.534Z,50.60
2019-05-03T16:03:32.820Z,50.00
2019-05-03T16:06:01.234Z,48.90
2019-05-03T16:08:29.939Z,49.00
2019-05-03T16:10:58.787Z,49.00
2019-05-03T16:13:27.268Z,49.30
2019-05-03T16:15:55.846Z,49.50
2019-05-03T16:18:27.064Z,49.10
2019-05-03T16:20:55.561Z,49.70
2019-05-03T16:23:25.017Z,49.50
2019-05-03T16:25:54.403Z,49.10
2019-05-03T16:28:24.903Z,49.10
2019-05-03T16:30:55.581Z,49.00
2019-05-03T16:33:27.831Z,49.10
2019-05-03T16:35:54.875Z,49.20
2019-05-03T16:38:24.842Z,49.30
2019-05-03T16:40:54.552Z,49.20
2019-05-03T16:43:25.131Z,49.40
2019-05-03T16:45:55.017Z,49.10
2019-05-03T16:48:24.696Z,50.30
2019-05-03T16:50:53.342Z,50.10
2019-05-03T16:53:21.779Z,49.30
2019-05-03T16:55:50.207Z,49.00
2019-05-03T16:58:18.677Z,49.30
2019-05-03T17:00:47.159Z,50.00
2019-05-03T17:03:17.343Z,49.80
2019-05-03T17:05:50.161Z,50.00
2019-05-03T17:08:35.205Z,50.50
2019-05-03T17:11:05.725Z,50.80
2019-05-03T17:13:34.649Z,50.70
2019-05-03T17:16:04.762Z,50.60
2019-05-03T17:18:35.285Z,49.90
2019-05-03T17:21:04.822Z,49.50
2019-05-03T17:23:35.129Z,50.20
2019-05-03T17:26:03.506Z,50.00
2019-05-03T17:28:32.057Z,49.90
2019-05-03T17:31:00.511Z,50.10
2019-05-03T17:33:28.987Z,50.10
2019-05-03T17:35:57.839Z,49.40
2019-05-03T17:38:26.297Z,49.40
2019-05-03T17:41:04.989Z,49.30
2019-05-03T17:43:35.082Z,49.50
2019-05-03T17:46:05.279Z,49.60
2019-05-03T17:48:34.887Z,50.50
2019-05-03T17:51:04.451Z,51.30
2019-05-03T17:53:37.617Z,51.80
2019-05-03T17:56:18.901Z,52.00
2019-05-03T17:58:48.976Z,52.10
2019-05-03T18:01:19.104Z,52.40
2019-05-03T18:04:06.596Z,53.30
2019-05-03T18:06:31.561Z,53.50
2019-05-03T18:09:10.299Z,53.90
2019-05-03T18:11:40.393Z,54.20
2019-05-03T18:14:08.837Z,54.50
2019-05-03T18:16:37.405Z,55.30
2019-05-03T18:19:06.046Z,55.30
2019-05-03T18:21:37.876Z,54.70
2019-05-03T18:24:09.688Z,54.70
2019-05-03T18:26:38.281Z,55.00
2019-05-03T18:29:06.749Z,55.00
2019-05-03T18:31:44.689Z,54.70
2019-05-03T18:34:19.708Z,54.70
2019-05-03T18:36:45.026Z,55.30
2019-05-03T18:39:14.733Z,55.50
2019-05-03T18:41:45.064Z,55.70
2019-05-03T18:44:15.391Z,55.90
2019-05-03T18:46:48.380Z,56.30
2019-05-03T18:49:16.303Z,56.30
2019-05-03T18:51:45.000Z,56.50
2019-05-03T18:54:15.493Z,56.60
2019-05-03T18:56:43.899Z,57.10
2019-05-03T18:59:14.529Z,57.30
2019-05-03T19:01:45.045Z,57.30
2019-05-03T19:04:34.276Z,57.50
2019-05-03T19:07:04.373Z,57.20
2019-05-03T19:09:32.053Z,57.40
2019-05-03T19:12:02.169Z,57.50
2019-05-03T19:14:30.715Z,57.60
2019-05-03T19:17:16.907Z,57.80
2019-05-03T19:19:47.169Z,58.10
2019-05-03T19:22:15.741Z,57.90
2019-05-03T19:24:45.746Z,58.50
2019-05-03T19:27:14.834Z,59.20
2019-05-03T19:29:44.928Z,61.30
2019-05-03T19:32:15.009Z,60.10
2019-05-03T19:34:50.102Z,59.10
2019-05-03T19:37:14.513Z,58.80
2019-05-03T19:39:43.187Z,58.60
2019-05-03T19:42:11.789Z,58.70
2019-05-03T19:44:40.491Z,58.80
2019-05-03T19:47:09.170Z,59.00
2019-05-03T19:49:37.640Z,59.70
2019-05-03T19:52:06.259Z,60.50
2019-05-03T19:54:36.499Z,60.40
2019-05-03T19:57:05.161Z,60.90
2019-05-03T19:59:44.763Z,60.90
2019-05-03T20:02:24.467Z,59.90
2019-05-03T20:05:10.651Z,60.60
2019-05-03T20:07:57.226Z,60.40
2019-05-03T20:10:37.366Z,61.40
2019-05-03T20:13:06.058Z,65.90
2019-05-03T20:15:34.544Z,67.30
2019-05-03T20:18:04.792Z,65.50
2019-05-03T20:20:33.449Z,62.50
2019-05-03T20:23:02.167Z,61.60
2019-05-03T20:25:30.713Z,61.10
2019-05-03T20:27:59.252Z,61.20
2019-05-03T20:30:27.838Z,61.20
2019-05-03T20:32:56.355Z,61.70
2019-05-03T20:35:25.301Z,62.00
2019-05-03T20:37:55.368Z,62.70
2019-05-03T20:40:25.551Z,63.50
2019-05-03T20:43:04.967Z,65.10
2019-05-03T20:45:44.547Z,69.40
2019-05-03T20:48:14.803Z,71.80
2019-05-03T20:50:44.733Z,71.50
2019-05-03T20:53:13.356Z,71.70
2019-05-03T20:55:41.928Z,70.70
2019-05-03T20:58:11.483Z,70.70
2019-05-03T21:00:40.064Z,70.70
2019-05-03T21:03:08.606Z,73.70
2019-05-03T21:05:37.527Z,74.60
2019-05-03T21:08:06.202Z,72.70
2019-05-03T21:10:34.799Z,73.80
2019-05-03T21:13:05.279Z,74.40
2019-05-03T21:15:44.553Z,72.00
2019-05-03T21:18:15.189Z,70.00
2019-05-03T21:20:45.492Z,71.60
2019-05-03T21:23:15.739Z,71.90
2019-05-03T21:26:05.733Z,72.00
2019-05-03T21:28:16.187Z,71.20
2019-05-03T21:30:45.470Z,71.50
2019-05-03T21:33:15.771Z,73.00
2019-05-03T21:35:45.228Z,74.00
2019-05-03T21:38:13.853Z,74.90
2019-05-03T21:40:42.286Z,77.10
2019-05-03T21:43:10.964Z,75.30
2019-05-03T21:45:41.431Z,76.90
2019-05-03T21:48:11.565Z,76.80
2019-05-03T21:50:40.042Z,79.40
2019-05-03T21:53:08.562Z,78.90
2019-05-03T21:55:37.038Z,78.60
2019-05-03T21:58:05.717Z,79.40
2019-05-03T22:00:45.382Z,79.10
2019-05-03T22:03:14.566Z,78.60
2019-05-03T22:05:54.810Z,78.30
2019-05-03T22:08:13.435Z,78.70
2019-05-03T22:10:42.046Z,79.20
2019-05-03T22:13:10.677Z,79.10
2019-05-03T22:15:40.895Z,79.60
2019-05-03T22:18:11.119Z,80.30
2019-05-03T22:20:56.313Z,82.70
2019-05-03T22:23:38.344Z,82.50
2019-05-03T22:26:07.556Z,81.70
2019-05-03T22:28:36.063Z,81.70
2019-05-03T22:31:06.765Z,82.90
2019-05-03T22:33:34.824Z,82.70
2019-05-03T22:36:08.602Z,81.90
2019-05-03T22:38:36.380Z,81.30
2019-05-03T22:41:05.501Z,81.50
2019-05-03T22:43:34.871Z,82.20
2019-05-03T22:46:05.190Z,83.90
2019-05-03T22:48:33.672Z,84.30
2019-05-03T22:51:05.642Z,84.50
2019-05-03T22:53:34.440Z,85.10
2019-05-03T22:56:04.759Z,85.40
2019-05-03T22:58:35.334Z,86.00
2019-05-03T23:01:03.900Z,85.90
2019-05-03T23:03:35.428Z,85.90
2019-05-03T23:06:05.054Z,85.90
2019-05-03T23:08:34.587Z,86.60
2019-05-03T23:11:05.126Z,86.30
2019-05-03T23:13:33.433Z,86.50
2019-05-03T23:16:01.919Z,86.60
2019-05-03T23:18:30.472Z,87.50
2019-05-03T23:21:15.730Z,87.80
2019-05-03T23:23:51.331Z,88.10
2019-05-03T23:26:19.767Z,88.60
2019-05-03T23:28:48.311Z,88.20
2019-05-03T23:31:16.800Z,88.30
2019-05-03T23:33:45.422Z,87.60
2019-05-03T23:36:15.386Z,86.80
2019-05-03T23:38:45.229Z,86.60
2019-05-03T23:41:15.331Z,87.10
2019-05-03T23:43:45.122Z,87.90
2019-05-03T23:46:15.146Z,88.30
2019-05-03T23:48:44.676Z,89.10
2019-05-03T23:51:14.991Z,89.60
2019-05-03T23:53:44.675Z,89.70
2019-05-03T23:56:17.587Z,90.10
2019-05-03T23:58:46.061Z,90.00
